sensor_id;sensor_type;location;lat;lon;timestamp;temperature;humidity
12926;DHT22;6529;50.566;9.774;2023-11-21T00:01:40;7.50;99.90
12926;DHT22;6529;50.566;9.774;2023-11-21T00:04:05;7.50;99.90
12926;DHT22;6529;50.566;9.774;2023-11-21T00:06:32;7.50;99.90
12926;DHT22;6529;50.566;9.774;2023-11-21T00:08:58;7.50;99.90
12926;DHT22;6529;50.566;9.774;2023-11-21T00:11:24;7.50;99.90
12926;DHT22;6529;50.566;9.774;2023-11-21T00:13:50;7.50;99.90
12926;DHT22;6529;50.566;9.774;2023-11-21T00:16:16;7.50;99.90
12926;DHT22;6529;50.566;9.774;2023-11-21T00:18:41;7.60;99.90
12926;DHT22;6529;50.566;9.774;2023-11-21T00:21:08;7.60;99.90
12926;DHT22;6529;50.566;9.774;2023-11-21T00:23:34;7.60;99.90
12926;DHT22;6529;50.566;9.774;2023-11-21T00:26:00;7.60;99.90
12926;DHT22;6529;50.566;9.774;2023-11-21T00:28:26;7.50;99.90
12926;DHT22;6529;50.566;9.774;2023-11-21T00:30:52;7.50;99.90
12926;DHT22;6529;50.566;9.774;2023-11-21T00:33:17;7.50;99.90
12926;DHT22;6529;50.566;9.774;2023-11-21T00:35:43;7.50;99.90
12926;DHT22;6529;50.566;9.774;2023-11-21T00:38:08;7.50;99.90
12926;DHT22;6529;50.566;9.774;2023-11-21T00:40:34;7.50;99.90
12926;DHT22;6529;50.566;9.774;2023-11-21T00:42:59;7.50;99.90
12926;DHT22;6529;50.566;9.774;2023-11-21T00:45:25;7.50;99.90
12926;DHT22;6529;50.566;9.774;2023-11-21T00:47:51;7.50;99.90
12926;DHT22;6529;50.566;9.774;2023-11-21T00:50:16;7.50;99.90
12926;DHT22;6529;50.566;9.774;2023-11-21T00:52:42;7.50;99.90
12926;DHT22;6529;50.566;9.774;2023-11-21T00:55:08;7.50;99.90
12926;DHT22;6529;50.566;9.774;2023-11-21T00:57:35;7.50;99.90
12926;DHT22;6529;50.566;9.774;2023-11-21T01:00:00;7.50;99.90
12926;DHT22;6529;50.566;9.774;2023-11-21T01:02:26;7.50;99.90
12926;DHT22;6529;50.566;9.774;2023-11-21T01:04:51;7.50;99.90
12926;DHT22;6529;50.566;9.774;2023-11-21T01:07:17;7.50;99.90
12926;DHT22;6529;50.566;9.774;2023-11-21T01:09:45;7.50;99.90
12926;DHT22;6529;50.566;9.774;2023-11-21T01:12:11;7.50;99.90
12926;DHT22;6529;50.566;9.774;2023-11-21T01:14:37;7.40;99.90
12926;DHT22;6529;50.566;9.774;2023-11-21T01:17:02;7.40;99.90
12926;DHT22;6529;50.566;9.774;2023-11-21T01:19:29;7.40;99.90
12926;DHT22;6529;50.566;9.774;2023-11-21T01:21:55;7.50;99.90
12926;DHT22;6529;50.566;9.774;2023-11-21T01:24:23;7.50;99.90
12926;DHT22;6529;50.566;9.774;2023-11-21T01:26:48;7.50;99.90
12926;DHT22;6529;50.566;9.774;2023-11-21T01:29:14;7.50;99.90
12926;DHT22;6529;50.566;9.774;2023-11-21T01:31:40;7.50;99.90
12926;DHT22;6529;50.566;9.774;2023-11-21T01:34:06;7.50;99.90
12926;DHT22;6529;50.566;9.774;2023-11-21T01:36:32;7.50;99.90
12926;DHT22;6529;50.566;9.774;2023-11-21T01:38:58;7.50;99.90
12926;DHT22;6529;50.566;9.774;2023-11-21T01:41:28;7.50;99.90
12926;DHT22;6529;50.566;9.774;2023-11-21T01:43:56;7.50;99.90
12926;DHT22;6529;50.566;9.774;2023-11-21T01:46:22;7.50;99.90
12926;DHT22;6529;50.566;9.774;2023-11-21T01:48:48;7.50;99.90
12926;DHT22;6529;50.566;9.774;2023-11-21T01:51:15;7.50;99.90
12926;DHT22;6529;50.566;9.774;2023-11-21T01:53:40;7.50;99.90
12926;DHT22;6529;50.566;9.774;2023-11-21T01:56:07;7.50;99.90
12926;DHT22;6529;50.566;9.774;2023-11-21T01:58:33;7.60;99.90
12926;DHT22;6529;50.566;9.774;2023-11-21T02:00:59;7.60;99.90
12926;DHT22;6529;50.566;9.774;2023-11-21T02:03:25;7.60;99.90
12926;DHT22;6529;50.566;9.774;2023-11-21T02:05:52;7.60;99.90
12926;DHT22;6529;50.566;9.774;2023-11-21T02:08:19;7.60;99.90
12926;DHT22;6529;50.566;9.774;2023-11-21T02:10:45;7.60;99.90
12926;DHT22;6529;50.566;9.774;2023-11-21T02:13:11;7.50;99.90
12926;DHT22;6529;50.566;9.774;2023-11-21T02:15:37;7.60;99.90
12926;DHT22;6529;50.566;9.774;2023-11-21T02:18:04;7.60;99.90
12926;DHT22;6529;50.566;9.774;2023-11-21T02:20:31;7.60;99.90
12926;DHT22;6529;50.566;9.774;2023-11-21T02:23:00;7.60;99.90
12926;DHT22;6529;50.566;9.774;2023-11-21T02:25:35;7.50;99.90
12926;DHT22;6529;50.566;9.774;2023-11-21T02:28:03;7.50;99.90
12926;DHT22;6529;50.566;9.774;2023-11-21T02:30:29;7.50;99.90
12926;DHT22;6529;50.566;9.774;2023-11-21T02:32:57;7.50;99.90
12926;DHT22;6529;50.566;9.774;2023-11-21T02:35:23;7.50;99.90
12926;DHT22;6529;50.566;9.774;2023-11-21T02:37:49;7.50;99.90
12926;DHT22;6529;50.566;9.774;2023-11-21T02:40:15;7.50;99.90
12926;DHT22;6529;50.566;9.774;2023-11-21T02:42:46;7.50;99.90
12926;DHT22;6529;50.566;9.774;2023-11-21T02:45:14;7.60;99.90
12926;DHT22;6529;50.566;9.774;2023-11-21T02:47:42;7.60;99.90
12926;DHT22;6529;50.566;9.774;2023-11-21T02:50:08;7.60;99.90
12926;DHT22;6529;50.566;9.774;2023-11-21T02:52:35;7.50;99.90
12926;DHT22;6529;50.566;9.774;2023-11-21T02:55:01;7.50;99.90
12926;DHT22;6529;50.566;9.774;2023-11-21T02:57:27;7.50;99.90
12926;DHT22;6529;50.566;9.774;2023-11-21T02:59:52;7.50;99.90
12926;DHT22;6529;50.566;9.774;2023-11-21T03:02:18;7.50;99.90
12926;DHT22;6529;50.566;9.774;2023-11-21T03:04:43;7.40;99.90
12926;DHT22;6529;50.566;9.774;2023-11-21T03:07:09;7.40;99.90
12926;DHT22;6529;50.566;9.774;2023-11-21T03:09:35;7.40;99.90
12926;DHT22;6529;50.566;9.774;2023-11-21T03:12:01;7.40;99.90
12926;DHT22;6529;50.566;9.774;2023-11-21T03:14:26;7.40;99.90
12926;DHT22;6529;50.566;9.774;2023-11-21T03:16:52;7.40;99.90
12926;DHT22;6529;50.566;9.774;2023-11-21T03:19:17;7.40;99.90
12926;DHT22;6529;50.566;9.774;2023-11-21T03:21:43;7.40;99.90
12926;DHT22;6529;50.566;9.774;2023-11-21T03:24:09;7.40;99.90
12926;DHT22;6529;50.566;9.774;2023-11-21T03:26:34;7.40;99.90
12926;DHT22;6529;50.566;9.774;2023-11-21T03:29:00;7.40;99.90
12926;DHT22;6529;50.566;9.774;2023-11-21T03:31:25;7.30;99.90
12926;DHT22;6529;50.566;9.774;2023-11-21T03:33:52;7.40;99.90
12926;DHT22;6529;50.566;9.774;2023-11-21T03:36:19;7.30;99.90
12926;DHT22;6529;50.566;9.774;2023-11-21T03:38:45;7.40;99.90
12926;DHT22;6529;50.566;9.774;2023-11-21T03:41:10;7.40;99.90
12926;DHT22;6529;50.566;9.774;2023-11-21T03:43:37;7.30;99.90
12926;DHT22;6529;50.566;9.774;2023-11-21T03:46:03;7.40;99.90
12926;DHT22;6529;50.566;9.774;2023-11-21T03:48:29;7.40;99.90
12926;DHT22;6529;50.566;9.774;2023-11-21T03:50:54;7.40;99.90
12926;DHT22;6529;50.566;9.774;2023-11-21T03:53:20;7.40;99.90
12926;DHT22;6529;50.566;9.774;2023-11-21T03:55:45;7.40;99.90
12926;DHT22;6529;50.566;9.774;2023-11-21T03:58:11;7.40;99.90
12926;DHT22;6529;50.566;9.774;2023-11-21T04:00:37;7.40;99.90
12926;DHT22;6529;50.566;9.774;2023-11-21T04:03:02;7.40;99.90
12926;DHT22;6529;50.566;9.774;2023-11-21T04:05:28;7.40;99.90
12926;DHT22;6529;50.566;9.774;2023-11-21T04:07:54;7.40;99.90
12926;DHT22;6529;50.566;9.774;2023-11-21T04:10:20;7.40;99.90
12926;DHT22;6529;50.566;9.774;2023-11-21T04:12:45;7.40;99.90
12926;DHT22;6529;50.566;9.774;2023-11-21T04:15:11;7.30;99.90
12926;DHT22;6529;50.566;9.774;2023-11-21T04:17:39;7.30;99.90
12926;DHT22;6529;50.566;9.774;2023-11-21T04:20:05;7.20;99.90
12926;DHT22;6529;50.566;9.774;2023-11-21T04:22:36;7.20;99.90
12926;DHT22;6529;50.566;9.774;2023-11-21T04:25:02;7.30;99.90
12926;DHT22;6529;50.566;9.774;2023-11-21T04:27:27;7.30;99.90
12926;DHT22;6529;50.566;9.774;2023-11-21T04:29:53;7.30;99.90
12926;DHT22;6529;50.566;9.774;2023-11-21T04:32:18;7.30;99.90
12926;DHT22;6529;50.566;9.774;2023-11-21T04:34:44;7.30;99.90
12926;DHT22;6529;50.566;9.774;2023-11-21T04:37:09;7.30;99.90
12926;DHT22;6529;50.566;9.774;2023-11-21T04:39:36;7.30;99.90
12926;DHT22;6529;50.566;9.774;2023-11-21T04:42:01;7.30;99.90
12926;DHT22;6529;50.566;9.774;2023-11-21T04:44:27;7.30;99.90
12926;DHT22;6529;50.566;9.774;2023-11-21T04:46:53;7.20;99.90
12926;DHT22;6529;50.566;9.774;2023-11-21T04:49:18;7.20;99.90
12926;DHT22;6529;50.566;9.774;2023-11-21T04:51:44;7.20;99.90
12926;DHT22;6529;50.566;9.774;2023-11-21T04:54:09;7.20;99.90
12926;DHT22;6529;50.566;9.774;2023-11-21T04:56:35;7.20;99.90
12926;DHT22;6529;50.566;9.774;2023-11-21T04:59:01;7.20;99.90
12926;DHT22;6529;50.566;9.774;2023-11-21T05:01:26;7.20;99.90
12926;DHT22;6529;50.566;9.774;2023-11-21T05:03:52;7.20;99.90
12926;DHT22;6529;50.566;9.774;2023-11-21T05:06:18;7.20;99.90
12926;DHT22;6529;50.566;9.774;2023-11-21T05:08:43;7.20;99.90
12926;DHT22;6529;50.566;9.774;2023-11-21T05:11:09;7.20;99.90
12926;DHT22;6529;50.566;9.774;2023-11-21T05:13:36;7.20;99.90
12926;DHT22;6529;50.566;9.774;2023-11-21T05:16:02;7.20;99.90
12926;DHT22;6529;50.566;9.774;2023-11-21T05:18:29;7.20;99.90
12926;DHT22;6529;50.566;9.774;2023-11-21T05:20:55;7.20;99.90
12926;DHT22;6529;50.566;9.774;2023-11-21T05:23:21;7.20;99.90
12926;DHT22;6529;50.566;9.774;2023-11-21T05:25:47;7.20;99.90
12926;DHT22;6529;50.566;9.774;2023-11-21T05:28:13;7.20;99.90
12926;DHT22;6529;50.566;9.774;2023-11-21T05:30:38;7.20;99.90
12926;DHT22;6529;50.566;9.774;2023-11-21T05:33:05;7.20;99.90
12926;DHT22;6529;50.566;9.774;2023-11-21T05:35:30;7.20;99.90
12926;DHT22;6529;50.566;9.774;2023-11-21T05:37:56;7.20;99.90
12926;DHT22;6529;50.566;9.774;2023-11-21T05:40:22;7.20;99.90
12926;DHT22;6529;50.566;9.774;2023-11-21T05:42:47;7.50;99.90
12926;DHT22;6529;50.566;9.774;2023-11-21T05:45:13;7.50;99.90
12926;DHT22;6529;50.566;9.774;2023-11-21T05:47:44;7.60;99.90
12926;DHT22;6529;50.566;9.774;2023-11-21T05:50:12;7.70;99.90
12926;DHT22;6529;50.566;9.774;2023-11-21T05:52:40;7.70;99.90
12926;DHT22;6529;50.566;9.774;2023-11-21T05:55:06;7.50;99.90
12926;DHT22;6529;50.566;9.774;2023-11-21T05:57:36;7.40;99.90
12926;DHT22;6529;50.566;9.774;2023-11-21T06:00:06;7.40;99.90
12926;DHT22;6529;50.566;9.774;2023-11-21T06:02:37;7.30;99.90
12926;DHT22;6529;50.566;9.774;2023-11-21T06:05:03;7.30;99.90
12926;DHT22;6529;50.566;9.774;2023-11-21T06:07:29;7.20;99.90
12926;DHT22;6529;50.566;9.774;2023-11-21T06:09:55;7.20;99.90
12926;DHT22;6529;50.566;9.774;2023-11-21T06:12:20;7.20;99.90
12926;DHT22;6529;50.566;9.774;2023-11-21T06:14:46;7.20;99.90
12926;DHT22;6529;50.566;9.774;2023-11-21T06:17:13;7.20;99.90
12926;DHT22;6529;50.566;9.774;2023-11-21T06:19:39;7.20;99.90
12926;DHT22;6529;50.566;9.774;2023-11-21T06:22:05;7.10;99.90
12926;DHT22;6529;50.566;9.774;2023-11-21T06:24:31;7.10;99.90
12926;DHT22;6529;50.566;9.774;2023-11-21T06:26:57;7.10;99.90
12926;DHT22;6529;50.566;9.774;2023-11-21T06:29:22;7.10;99.90
12926;DHT22;6529;50.566;9.774;2023-11-21T06:31:49;7.10;99.90
12926;DHT22;6529;50.566;9.774;2023-11-21T06:34:15;7.10;99.90
12926;DHT22;6529;50.566;9.774;2023-11-21T06:36:40;7.10;99.90
12926;DHT22;6529;50.566;9.774;2023-11-21T06:39:06;7.10;99.90
12926;DHT22;6529;50.566;9.774;2023-11-21T06:41:33;7.10;99.90
12926;DHT22;6529;50.566;9.774;2023-11-21T06:43:59;7.10;99.90
12926;DHT22;6529;50.566;9.774;2023-11-21T06:46:24;7.10;99.90
12926;DHT22;6529;50.566;9.774;2023-11-21T06:48:50;7.10;99.90
12926;DHT22;6529;50.566;9.774;2023-11-21T06:51:16;7.10;99.90
12926;DHT22;6529;50.566;9.774;2023-11-21T06:53:41;7.10;99.90
12926;DHT22;6529;50.566;9.774;2023-11-21T06:56:17;7.10;99.90
12926;DHT22;6529;50.566;9.774;2023-11-21T06:58:44;7.00;99.90
12926;DHT22;6529;50.566;9.774;2023-11-21T07:01:11;7.10;99.90
12926;DHT22;6529;50.566;9.774;2023-11-21T07:03:36;7.10;99.90
12926;DHT22;6529;50.566;9.774;2023-11-21T07:06:03;7.10;99.90
12926;DHT22;6529;50.566;9.774;2023-11-21T07:08:29;7.10;99.90
12926;DHT22;6529;50.566;9.774;2023-11-21T07:10:54;7.10;99.90
12926;DHT22;6529;50.566;9.774;2023-11-21T07:13:20;7.10;99.90
12926;DHT22;6529;50.566;9.774;2023-11-21T07:15:47;7.00;99.90
12926;DHT22;6529;50.566;9.774;2023-11-21T07:18:13;7.00;99.90
12926;DHT22;6529;50.566;9.774;2023-11-21T07:20:39;6.90;99.90
12926;DHT22;6529;50.566;9.774;2023-11-21T07:23:04;6.80;99.90
12926;DHT22;6529;50.566;9.774;2023-11-21T07:25:31;6.80;99.90
12926;DHT22;6529;50.566;9.774;2023-11-21T07:27:57;6.80;99.90
12926;DHT22;6529;50.566;9.774;2023-11-21T07:30:22;6.80;99.90
12926;DHT22;6529;50.566;9.774;2023-11-21T07:32:48;6.70;99.90
12926;DHT22;6529;50.566;9.774;2023-11-21T07:35:14;6.70;99.90
12926;DHT22;6529;50.566;9.774;2023-11-21T07:37:40;6.70;99.90
12926;DHT22;6529;50.566;9.774;2023-11-21T07:40:06;6.70;99.90
12926;DHT22;6529;50.566;9.774;2023-11-21T07:42:34;6.70;99.90
12926;DHT22;6529;50.566;9.774;2023-11-21T07:45:00;6.70;99.90
12926;DHT22;6529;50.566;9.774;2023-11-21T07:47:25;6.70;99.90
12926;DHT22;6529;50.566;9.774;2023-11-21T07:49:53;6.70;99.90
12926;DHT22;6529;50.566;9.774;2023-11-21T07:52:19;6.70;99.90
12926;DHT22;6529;50.566;9.774;2023-11-21T07:54:46;6.80;99.90
12926;DHT22;6529;50.566;9.774;2023-11-21T07:57:12;6.80;99.90
12926;DHT22;6529;50.566;9.774;2023-11-21T07:59:40;6.80;99.90
12926;DHT22;6529;50.566;9.774;2023-11-21T08:02:08;6.80;99.90
12926;DHT22;6529;50.566;9.774;2023-11-21T08:04:34;6.80;99.90
12926;DHT22;6529;50.566;9.774;2023-11-21T08:07:01;6.80;99.90
12926;DHT22;6529;50.566;9.774;2023-11-21T08:09:27;6.80;99.90
12926;DHT22;6529;50.566;9.774;2023-11-21T08:11:53;6.80;99.90
12926;DHT22;6529;50.566;9.774;2023-11-21T08:14:18;6.80;99.90
12926;DHT22;6529;50.566;9.774;2023-11-21T08:16:45;6.80;99.90
12926;DHT22;6529;50.566;9.774;2023-11-21T08:19:11;6.90;99.90
12926;DHT22;6529;50.566;9.774;2023-11-21T08:21:36;6.90;99.90
12926;DHT22;6529;50.566;9.774;2023-11-21T08:24:06;7.00;99.90
12926;DHT22;6529;50.566;9.774;2023-11-21T08:26:36;7.00;99.90
12926;DHT22;6529;50.566;9.774;2023-11-21T08:29:01;6.90;99.90
12926;DHT22;6529;50.566;9.774;2023-11-21T08:31:28;7.00;99.90
12926;DHT22;6529;50.566;9.774;2023-11-21T08:33:54;7.00;99.90
12926;DHT22;6529;50.566;9.774;2023-11-21T08:36:21;6.90;99.90
12926;DHT22;6529;50.566;9.774;2023-11-21T08:38:49;7.00;99.90
12926;DHT22;6529;50.566;9.774;2023-11-21T08:41:17;7.10;99.90
12926;DHT22;6529;50.566;9.774;2023-11-21T08:43:50;7.20;99.90
12926;DHT22;6529;50.566;9.774;2023-11-21T08:46:15;7.30;99.90
12926;DHT22;6529;50.566;9.774;2023-11-21T08:48:43;7.30;99.90
12926;DHT22;6529;50.566;9.774;2023-11-21T08:51:10;7.40;99.90
12926;DHT22;6529;50.566;9.774;2023-11-21T08:53:39;7.40;99.90
12926;DHT22;6529;50.566;9.774;2023-11-21T08:56:05;7.40;99.90
12926;DHT22;6529;50.566;9.774;2023-11-21T08:58:31;7.40;99.90
12926;DHT22;6529;50.566;9.774;2023-11-21T09:00:58;7.40;99.90
12926;DHT22;6529;50.566;9.774;2023-11-21T09:03:23;7.30;99.90
12926;DHT22;6529;50.566;9.774;2023-11-21T09:05:49;7.40;99.90
12926;DHT22;6529;50.566;9.774;2023-11-21T09:08:15;7.40;99.90
12926;DHT22;6529;50.566;9.774;2023-11-21T09:10:40;7.40;99.90
12926;DHT22;6529;50.566;9.774;2023-11-21T09:13:08;7.40;99.90
12926;DHT22;6529;50.566;9.774;2023-11-21T09:15:34;7.50;99.90
12926;DHT22;6529;50.566;9.774;2023-11-21T09:18:00;7.50;99.90
12926;DHT22;6529;50.566;9.774;2023-11-21T09:20:27;7.50;99.90
12926;DHT22;6529;50.566;9.774;2023-11-21T09:22:52;7.40;99.90
12926;DHT22;6529;50.566;9.774;2023-11-21T09:25:19;7.50;99.90
12926;DHT22;6529;50.566;9.774;2023-11-21T09:27:46;7.50;99.90
12926;DHT22;6529;50.566;9.774;2023-11-21T09:30:12;7.50;99.90
12926;DHT22;6529;50.566;9.774;2023-11-21T09:32:39;7.60;99.90
12926;DHT22;6529;50.566;9.774;2023-11-21T09:35:06;7.60;99.90
12926;DHT22;6529;50.566;9.774;2023-11-21T09:37:33;7.70;99.90
12926;DHT22;6529;50.566;9.774;2023-11-21T09:40:00;7.70;99.90
12926;DHT22;6529;50.566;9.774;2023-11-21T09:42:36;7.70;99.90
12926;DHT22;6529;50.566;9.774;2023-11-21T09:47:38;7.60;99.90
12926;DHT22;6529;50.566;9.774;2023-11-21T09:50:05;7.60;99.90
12926;DHT22;6529;50.566;9.774;2023-11-21T09:55:26;7.70;99.90
12926;DHT22;6529;50.566;9.774;2023-11-21T09:57:54;7.80;99.90
12926;DHT22;6529;50.566;9.774;2023-11-21T10:00:21;7.90;99.90
12926;DHT22;6529;50.566;9.774;2023-11-21T10:02:49;8.00;99.90
12926;DHT22;6529;50.566;9.774;2023-11-21T10:05:15;8.00;99.90
12926;DHT22;6529;50.566;9.774;2023-11-21T10:07:43;8.10;99.90
12926;DHT22;6529;50.566;9.774;2023-11-21T10:10:10;8.10;99.90
12926;DHT22;6529;50.566;9.774;2023-11-21T10:12:37;8.10;99.90
12926;DHT22;6529;50.566;9.774;2023-11-21T10:15:07;8.20;99.90
12926;DHT22;6529;50.566;9.774;2023-11-21T10:17:36;8.20;99.90
12926;DHT22;6529;50.566;9.774;2023-11-21T10:20:09;8.00;99.90
12926;DHT22;6529;50.566;9.774;2023-11-21T10:22:41;8.10;99.90
12926;DHT22;6529;50.566;9.774;2023-11-21T10:25:08;8.10;99.90
12926;DHT22;6529;50.566;9.774;2023-11-21T10:27:35;8.10;99.90
12926;DHT22;6529;50.566;9.774;2023-11-21T10:30:04;8.10;99.90
12926;DHT22;6529;50.566;9.774;2023-11-21T10:32:30;8.10;99.90
12926;DHT22;6529;50.566;9.774;2023-11-21T10:34:59;8.10;99.90
12926;DHT22;6529;50.566;9.774;2023-11-21T10:37:32;8.00;99.90
12926;DHT22;6529;50.566;9.774;2023-11-21T10:40:01;7.90;99.90
12926;DHT22;6529;50.566;9.774;2023-11-21T10:42:26;7.90;99.90
12926;DHT22;6529;50.566;9.774;2023-11-21T10:44:55;7.90;99.90
12926;DHT22;6529;50.566;9.774;2023-11-21T10:47:20;7.90;99.90
12926;DHT22;6529;50.566;9.774;2023-11-21T10:49:51;7.90;99.90
12926;DHT22;6529;50.566;9.774;2023-11-21T10:52:19;8.00;99.90
12926;DHT22;6529;50.566;9.774;2023-11-21T10:54:46;8.00;99.90
12926;DHT22;6529;50.566;9.774;2023-11-21T10:57:16;8.00;99.90
12926;DHT22;6529;50.566;9.774;2023-11-21T10:59:46;8.10;99.90
12926;DHT22;6529;50.566;9.774;2023-11-21T11:02:24;8.20;99.90
12926;DHT22;6529;50.566;9.774;2023-11-21T11:04:54;8.10;99.90
12926;DHT22;6529;50.566;9.774;2023-11-21T11:07:27;8.10;99.90
12926;DHT22;6529;50.566;9.774;2023-11-21T11:09:55;8.10;99.90
12926;DHT22;6529;50.566;9.774;2023-11-21T11:12:21;8.10;99.90
12926;DHT22;6529;50.566;9.774;2023-11-21T11:14:48;8.10;99.90
12926;DHT22;6529;50.566;9.774;2023-11-21T11:17:14;8.10;99.90
12926;DHT22;6529;50.566;9.774;2023-11-21T11:19:40;8.10;99.90
12926;DHT22;6529;50.566;9.774;2023-11-21T11:35:53;8.20;99.90
12926;DHT22;6529;50.566;9.774;2023-11-21T11:38:23;8.20;99.90
12926;DHT22;6529;50.566;9.774;2023-11-21T11:40:52;8.20;99.90
12926;DHT22;6529;50.566;9.774;2023-11-21T11:43:25;8.20;99.90
12926;DHT22;6529;50.566;9.774;2023-11-21T11:45:55;8.20;99.90
12926;DHT22;6529;50.566;9.774;2023-11-21T11:48:22;8.10;99.90
12926;DHT22;6529;50.566;9.774;2023-11-21T11:53:35;8.10;99.90
12926;DHT22;6529;50.566;9.774;2023-11-21T11:58:55;8.00;99.90
12926;DHT22;6529;50.566;9.774;2023-11-21T12:01:22;8.00;99.90
12926;DHT22;6529;50.566;9.774;2023-11-21T12:06:43;8.10;99.90
12926;DHT22;6529;50.566;9.774;2023-11-21T12:09:19;8.10;99.90
12926;DHT22;6529;50.566;9.774;2023-11-21T12:11:47;8.10;99.90
12926;DHT22;6529;50.566;9.774;2023-11-21T12:14:14;8.10;99.90
12926;DHT22;6529;50.566;9.774;2023-11-21T12:16:40;8.10;99.90
12926;DHT22;6529;50.566;9.774;2023-11-21T12:19:05;8.10;99.90
12926;DHT22;6529;50.566;9.774;2023-11-21T12:21:31;8.10;99.90
12926;DHT22;6529;50.566;9.774;2023-11-21T12:23:58;8.10;99.90
12926;DHT22;6529;50.566;9.774;2023-11-21T12:26:27;8.10;99.90
12926;DHT22;6529;50.566;9.774;2023-11-21T12:28:53;8.20;99.90
12926;DHT22;6529;50.566;9.774;2023-11-21T12:31:24;8.20;99.90
12926;DHT22;6529;50.566;9.774;2023-11-21T12:33:50;8.20;99.90
12926;DHT22;6529;50.566;9.774;2023-11-21T12:36:16;8.20;99.90
12926;DHT22;6529;50.566;9.774;2023-11-21T12:42:20;8.30;99.90
12926;DHT22;6529;50.566;9.774;2023-11-21T12:44:46;8.30;99.90
12926;DHT22;6529;50.566;9.774;2023-11-21T12:47:17;8.30;99.90
12926;DHT22;6529;50.566;9.774;2023-11-21T12:49:43;8.30;99.90
12926;DHT22;6529;50.566;9.774;2023-11-21T12:52:09;8.30;99.90
12926;DHT22;6529;50.566;9.774;2023-11-21T12:54:35;8.30;99.90
12926;DHT22;6529;50.566;9.774;2023-11-21T12:57:01;8.30;99.90
12926;DHT22;6529;50.566;9.774;2023-11-21T12:59:27;8.30;99.90
12926;DHT22;6529;50.566;9.774;2023-11-21T13:01:54;8.30;99.90
12926;DHT22;6529;50.566;9.774;2023-11-21T13:04:30;8.40;99.90
12926;DHT22;6529;50.566;9.774;2023-11-21T13:07:03;8.30;99.90
12926;DHT22;6529;50.566;9.774;2023-11-21T13:09:32;8.30;99.90
12926;DHT22;6529;50.566;9.774;2023-11-21T13:12:01;8.40;99.90
12926;DHT22;6529;50.566;9.774;2023-11-21T13:14:29;8.40;99.90
12926;DHT22;6529;50.566;9.774;2023-11-21T13:16:57;8.40;99.90
12926;DHT22;6529;50.566;9.774;2023-11-21T13:19:22;8.30;99.90
12926;DHT22;6529;50.566;9.774;2023-11-21T13:21:50;8.30;99.90
12926;DHT22;6529;50.566;9.774;2023-11-21T13:24:15;8.30;99.90
12926;DHT22;6529;50.566;9.774;2023-11-21T13:26:47;8.30;99.90
12926;DHT22;6529;50.566;9.774;2023-11-21T13:29:19;8.30;99.90
12926;DHT22;6529;50.566;9.774;2023-11-21T13:49:46;8.30;99.90
12926;DHT22;6529;50.566;9.774;2023-11-21T13:52:13;8.30;99.90
12926;DHT22;6529;50.566;9.774;2023-11-21T13:54:41;8.30;99.90
12926;DHT22;6529;50.566;9.774;2023-11-21T13:57:07;8.30;99.90
12926;DHT22;6529;50.566;9.774;2023-11-21T13:59:32;8.30;99.90
12926;DHT22;6529;50.566;9.774;2023-11-21T14:01:59;8.30;99.90
12926;DHT22;6529;50.566;9.774;2023-11-21T14:04:42;8.30;99.90
12926;DHT22;6529;50.566;9.774;2023-11-21T14:07:23;8.30;99.90
12926;DHT22;6529;50.566;9.774;2023-11-21T14:10:02;8.30;99.90
12926;DHT22;6529;50.566;9.774;2023-11-21T14:12:28;8.30;99.90
12926;DHT22;6529;50.566;9.774;2023-11-21T14:14:54;8.30;99.90
12926;DHT22;6529;50.566;9.774;2023-11-21T14:17:20;8.30;99.90
12926;DHT22;6529;50.566;9.774;2023-11-21T14:19:49;8.30;99.90
12926;DHT22;6529;50.566;9.774;2023-11-21T14:22:14;8.30;99.90
12926;DHT22;6529;50.566;9.774;2023-11-21T14:24:40;8.30;99.90
12926;DHT22;6529;50.566;9.774;2023-11-21T14:27:10;8.30;99.90
12926;DHT22;6529;50.566;9.774;2023-11-21T14:29:36;8.30;99.90
12926;DHT22;6529;50.566;9.774;2023-11-21T14:32:05;8.30;99.90
12926;DHT22;6529;50.566;9.774;2023-11-21T14:34:31;8.20;99.90
12926;DHT22;6529;50.566;9.774;2023-11-21T14:36:56;8.20;99.90
12926;DHT22;6529;50.566;9.774;2023-11-21T14:39:22;8.20;99.90
12926;DHT22;6529;50.566;9.774;2023-11-21T14:41:49;8.20;99.90
12926;DHT22;6529;50.566;9.774;2023-11-21T14:44:15;8.20;99.90
12926;DHT22;6529;50.566;9.774;2023-11-21T14:46:41;8.20;99.90
12926;DHT22;6529;50.566;9.774;2023-11-21T14:49:11;8.20;99.90
12926;DHT22;6529;50.566;9.774;2023-11-21T14:51:49;8.20;99.90
12926;DHT22;6529;50.566;9.774;2023-11-21T14:54:33;8.20;99.90
12926;DHT22;6529;50.566;9.774;2023-11-21T14:57:12;8.20;99.90
12926;DHT22;6529;50.566;9.774;2023-11-21T14:59:49;8.20;99.90
12926;DHT22;6529;50.566;9.774;2023-11-21T15:02:23;8.20;99.90
12926;DHT22;6529;50.566;9.774;2023-11-21T15:05:09;8.20;99.90
12926;DHT22;6529;50.566;9.774;2023-11-21T15:07:40;8.20;99.90
12926;DHT22;6529;50.566;9.774;2023-11-21T15:10:07;8.20;99.90
12926;DHT22;6529;50.566;9.774;2023-11-21T15:12:37;8.20;99.90
12926;DHT22;6529;50.566;9.774;2023-11-21T15:15:05;8.20;99.90
12926;DHT22;6529;50.566;9.774;2023-11-21T15:17:35;8.10;99.90
12926;DHT22;6529;50.566;9.774;2023-11-21T15:20:02;8.10;99.90
12926;DHT22;6529;50.566;9.774;2023-11-21T15:22:29;8.10;99.90
12926;DHT22;6529;50.566;9.774;2023-11-21T15:24:54;8.10;99.90
12926;DHT22;6529;50.566;9.774;2023-11-21T15:27:21;8.10;99.90
12926;DHT22;6529;50.566;9.774;2023-11-21T15:29:47;8.10;99.90
12926;DHT22;6529;50.566;9.774;2023-11-21T15:32:13;8.10;99.90
12926;DHT22;6529;50.566;9.774;2023-11-21T15:34:38;8.10;99.90
12926;DHT22;6529;50.566;9.774;2023-11-21T15:37:06;8.10;99.90
12926;DHT22;6529;50.566;9.774;2023-11-21T15:39:35;8.10;99.90
12926;DHT22;6529;50.566;9.774;2023-11-21T15:42:00;8.10;99.90
12926;DHT22;6529;50.566;9.774;2023-11-21T15:44:26;8.00;99.90
12926;DHT22;6529;50.566;9.774;2023-11-21T15:46:53;8.10;99.90
12926;DHT22;6529;50.566;9.774;2023-11-21T15:49:19;8.10;99.90
12926;DHT22;6529;50.566;9.774;2023-11-21T15:51:48;8.00;99.90
12926;DHT22;6529;50.566;9.774;2023-11-21T15:54:26;8.00;99.90
12926;DHT22;6529;50.566;9.774;2023-11-21T15:56:52;8.00;99.90
12926;DHT22;6529;50.566;9.774;2023-11-21T15:59:20;8.00;99.90
12926;DHT22;6529;50.566;9.774;2023-11-21T16:01:49;8.00;99.90
12926;DHT22;6529;50.566;9.774;2023-11-21T16:04:15;8.00;99.90
12926;DHT22;6529;50.566;9.774;2023-11-21T16:06:44;8.00;99.90
12926;DHT22;6529;50.566;9.774;2023-11-21T16:09:11;8.00;99.90
12926;DHT22;6529;50.566;9.774;2023-11-21T16:11:59;8.00;99.90
12926;DHT22;6529;50.566;9.774;2023-11-21T16:14:28;8.00;99.90
12926;DHT22;6529;50.566;9.774;2023-11-21T16:17:00;8.00;99.90
12926;DHT22;6529;50.566;9.774;2023-11-21T16:19:26;7.90;99.90
12926;DHT22;6529;50.566;9.774;2023-11-21T16:21:52;7.90;99.90
12926;DHT22;6529;50.566;9.774;2023-11-21T16:24:18;7.90;99.90
12926;DHT22;6529;50.566;9.774;2023-11-21T16:26:45;7.90;99.90
12926;DHT22;6529;50.566;9.774;2023-11-21T16:29:14;7.90;99.90
12926;DHT22;6529;50.566;9.774;2023-11-21T16:31:40;7.90;99.90
12926;DHT22;6529;50.566;9.774;2023-11-21T16:34:18;7.90;99.90
12926;DHT22;6529;50.566;9.774;2023-11-21T16:36:44;7.90;99.90
12926;DHT22;6529;50.566;9.774;2023-11-21T16:39:14;7.90;99.90
12926;DHT22;6529;50.566;9.774;2023-11-21T16:41:42;7.80;99.90
12926;DHT22;6529;50.566;9.774;2023-11-21T16:44:17;7.80;99.90
12926;DHT22;6529;50.566;9.774;2023-11-21T16:46:44;7.80;99.90
12926;DHT22;6529;50.566;9.774;2023-11-21T16:49:11;7.70;99.90
12926;DHT22;6529;50.566;9.774;2023-11-21T16:51:37;7.70;99.90